createdAt,value
2019-05-20T00:02:24.710Z,1.00
2019-05-20T00:04:50.875Z,1.00
2019-05-20T00:07:22.937Z,1.00
2019-05-20T00:09:54.825Z,1.00
2019-05-20T00:12:26.537Z,1.00
2019-05-20T00:14:58.207Z,99.90
2019-05-20T00:17:29.916Z,1.00
2019-05-20T00:20:01.589Z,1.00
2019-05-20T00:22:34.436Z,1.00
2019-05-20T00:25:07.166Z,1.00
2019-05-20T00:27:38.879Z,1.00
2019-05-20T00:30:10.923Z,1.00
2019-05-20T00:32:42.712Z,1.00
2019-05-20T00:35:14.631Z,1.00
2019-05-20T00:37:46.456Z,1.00
2019-05-20T00:40:18.342Z,1.00
2019-05-20T00:42:50.075Z,1.00
2019-05-20T00:45:21.707Z,1.00
2019-05-20T00:47:53.803Z,1.00
2019-05-20T00:50:25.412Z,99.90
2019-05-20T00:52:58.368Z,99.90
2019-05-20T00:55:32.638Z,99.90
2019-05-20T00:58:04.309Z,99.90
2019-05-20T01:00:36.066Z,1.00
2019-05-20T01:03:07.749Z,1.00
2019-05-20T01:05:39.510Z,1.00
2019-05-20T01:08:11.427Z,99.90
2019-05-20T01:10:43.081Z,1.00
2019-05-20T01:13:25.266Z,99.90
2019-05-20T01:15:57.201Z,99.90
2019-05-20T01:18:29.259Z,99.90
2019-05-20T01:21:01.226Z,1.00
2019-05-20T01:23:32.871Z,1.00
2019-05-20T01:26:04.515Z,1.00
2019-05-20T01:28:36.258Z,1.00
2019-05-20T01:31:07.951Z,1.00
2019-05-20T01:33:39.631Z,1.00
2019-05-20T01:36:12.067Z,1.00
2019-05-20T01:38:43.790Z,1.00
2019-05-20T01:41:15.440Z,1.00
2019-05-20T01:43:47.179Z,1.00
2019-05-20T01:46:18.785Z,1.00
2019-05-20T01:48:50.431Z,1.00
2019-05-20T01:51:22.106Z,1.00
2019-05-20T01:53:53.838Z,1.00
2019-05-20T01:56:25.537Z,1.00
2019-05-20T01:58:57.197Z,1.00
2019-05-20T02:02:19.479Z,1.00
2019-05-20T02:04:51.339Z,1.00
2019-05-20T02:07:24.121Z,1.00
2019-05-20T02:09:55.728Z,1.00
2019-05-20T02:12:27.506Z,1.00
2019-05-20T02:15:04.800Z,1.00
2019-05-20T02:17:36.387Z,1.00
2019-05-20T02:20:08.303Z,1.00
2019-05-20T02:22:40.014Z,1.00
2019-05-20T02:25:11.638Z,1.00
2019-05-20T02:27:43.249Z,1.00
2019-05-20T02:30:15.299Z,1.00
2019-05-20T02:32:46.980Z,1.00
2019-05-20T02:35:18.617Z,1.00
2019-05-20T02:37:50.219Z,1.00
2019-05-20T02:40:21.845Z,1.00
2019-05-20T02:42:53.484Z,1.00
2019-05-20T02:45:26.099Z,1.00
2019-05-20T02:47:57.720Z,1.00
2019-05-20T02:50:29.384Z,1.00
2019-05-20T02:53:00.973Z,1.00
2019-05-20T02:55:32.598Z,1.00
2019-05-20T02:58:04.226Z,1.00
2019-05-20T03:00:35.898Z,1.00
2019-05-20T03:03:07.502Z,1.00
2019-05-20T03:05:39.162Z,1.00
2019-05-20T03:08:10.797Z,1.00
2019-05-20T03:10:42.503Z,1.00
2019-05-20T03:13:14.115Z,1.00
2019-05-20T03:15:45.833Z,1.00
2019-05-20T03:18:17.434Z,1.00
2019-05-20T03:20:49.089Z,1.00
2019-05-20T03:23:20.720Z,1.00
2019-05-20T03:25:52.429Z,1.00
2019-05-20T03:28:24.040Z,1.00
2019-05-20T03:30:55.712Z,1.00
2019-05-20T03:33:27.387Z,1.00
2019-05-20T03:35:59.085Z,1.00
2019-05-20T03:38:30.731Z,1.00
2019-05-20T03:41:02.489Z,1.00
2019-05-20T03:43:34.223Z,1.00
2019-05-20T03:46:05.937Z,1.00
2019-05-20T03:48:37.663Z,1.00
2019-05-20T03:51:09.305Z,1.00
2019-05-20T03:53:40.961Z,1.00
2019-05-20T03:56:12.616Z,1.00
2019-05-20T03:58:44.335Z,1.00
2019-05-20T04:01:16.019Z,1.00
2019-05-20T04:03:47.667Z,1.00
2019-05-20T04:06:19.314Z,1.00
2019-05-20T04:08:50.941Z,1.00
2019-05-20T04:11:23.634Z,1.00
2019-05-20T04:13:55.312Z,1.00
2019-05-20T04:16:27.002Z,1.00
2019-05-20T04:18:58.672Z,1.00
2019-05-20T04:21:30.334Z,1.00
2019-05-20T04:24:03.012Z,1.00
2019-05-20T04:26:34.742Z,1.00
2019-05-20T04:29:06.367Z,1.00
2019-05-20T04:31:38.107Z,1.00
2019-05-20T04:34:09.722Z,1.00
2019-05-20T04:36:41.480Z,1.00
2019-05-20T04:39:13.177Z,1.00
2019-05-20T04:41:44.847Z,1.00
2019-05-20T04:44:16.775Z,1.00
2019-05-20T04:46:48.440Z,1.00
2019-05-20T04:49:20.204Z,1.00
2019-05-20T04:51:51.837Z,1.00
2019-05-20T04:54:23.471Z,1.00
2019-05-20T04:56:55.147Z,1.00
2019-05-20T04:59:26.775Z,1.00
2019-05-20T05:01:58.464Z,1.00
2019-05-20T05:04:30.076Z,1.00
2019-05-20T05:07:01.733Z,1.00
2019-05-20T05:09:33.420Z,1.00
2019-05-20T05:12:05.279Z,1.00
2019-05-20T05:14:36.922Z,1.00
2019-05-20T05:17:08.618Z,1.00
2019-05-20T05:19:40.266Z,1.00
2019-05-20T05:22:11.980Z,1.00
2019-05-20T05:24:43.802Z,1.00
2019-05-20T05:27:15.740Z,1.00
2019-05-20T05:29:47.377Z,1.00
2019-05-20T05:32:37.887Z,1.00
2019-05-20T05:35:10.568Z,1.00
2019-05-20T05:37:43.261Z,1.00
2019-05-20T05:40:15.772Z,99.90
2019-05-20T05:42:47.516Z,1.00
2019-05-20T05:45:23.928Z,99.90
2019-05-20T05:47:55.696Z,99.90
2019-05-20T05:50:27.740Z,99.90
2019-05-20T05:52:59.437Z,99.90
2019-05-20T05:55:31.075Z,99.90
2019-05-20T05:58:03.028Z,99.90
2019-05-20T06:00:34.741Z,99.90
2019-05-20T06:03:06.514Z,99.90
2019-05-20T06:05:38.175Z,99.90
2019-05-20T06:08:09.819Z,99.90
2019-05-20T06:10:41.468Z,99.90
2019-05-20T06:13:13.354Z,99.90
2019-05-20T06:15:45.082Z,99.90
2019-05-20T06:18:16.792Z,99.90
2019-05-20T06:20:48.473Z,99.90
2019-05-20T06:23:20.131Z,99.90
2019-05-20T06:25:51.988Z,99.90
2019-05-20T06:28:23.731Z,99.90
2019-05-20T06:30:55.470Z,99.90
2019-05-20T06:33:27.190Z,99.90
2019-05-20T06:35:58.960Z,99.90
2019-05-20T06:38:43.350Z,99.90
2019-05-20T06:41:15.024Z,99.90
2019-05-20T06:43:47.027Z,99.90
2019-05-20T06:46:18.812Z,99.90
2019-05-20T06:48:50.506Z,99.90
2019-05-20T06:51:22.150Z,99.90
2019-05-20T06:53:53.891Z,99.90
2019-05-20T06:56:25.596Z,99.90
2019-05-20T06:58:57.228Z,99.90
2019-05-20T07:01:28.934Z,99.90
2019-05-20T07:04:01.840Z,99.90
2019-05-20T07:06:46.029Z,99.90
2019-05-20T07:09:08.127Z,99.90
2019-05-20T07:11:39.914Z,99.90
2019-05-20T07:14:11.720Z,99.90
2019-05-20T07:16:43.471Z,99.90
2019-05-20T07:19:15.243Z,99.90
2019-05-20T07:21:47.012Z,99.90
2019-05-20T07:24:19.166Z,99.90
2019-05-20T07:26:50.899Z,99.90
2019-05-20T07:29:22.753Z,99.90
2019-05-20T07:31:54.583Z,99.90
2019-05-20T07:34:26.287Z,99.90
2019-05-20T07:37:03.214Z,99.90
2019-05-20T07:39:31.928Z,99.90
2019-05-20T07:42:04.037Z,99.90
2019-05-20T07:44:35.925Z,99.90
2019-05-20T07:47:10.673Z,99.90
2019-05-20T07:49:41.820Z,99.90
2019-05-20T07:52:14.702Z,99.90
2019-05-20T07:54:47.065Z,99.90
2019-05-20T07:57:21.496Z,99.90
2019-05-20T07:59:55.440Z,99.90
2019-05-20T08:02:28.486Z,99.90
2019-05-20T08:05:00.606Z,99.90
2019-05-20T08:07:50.345Z,99.90
2019-05-20T08:10:06.657Z,99.90
2019-05-20T08:12:38.417Z,99.90
2019-05-20T08:15:10.904Z,99.90
2019-05-20T08:17:42.674Z,99.90
2019-05-20T08:20:16.162Z,99.90
2019-05-20T08:22:47.852Z,99.90
2019-05-20T08:25:19.623Z,99.90
2019-05-20T08:27:51.341Z,99.90
2019-05-20T08:30:34.611Z,99.90
2019-05-20T08:33:07.500Z,99.90
2019-05-20T08:35:39.298Z,99.90
2019-05-20T08:38:11.066Z,99.90
2019-05-20T08:40:48.299Z,99.90
2019-05-20T08:43:18.384Z,99.90
2019-05-20T08:45:50.056Z,99.90
2019-05-20T08:48:21.929Z,99.90
2019-05-20T08:50:54.825Z,99.90
2019-05-20T08:53:26.530Z,99.90
2019-05-20T08:55:58.166Z,99.90
2019-05-20T08:58:30.847Z,99.90
2019-05-20T09:01:02.693Z,99.90
2019-05-20T09:03:34.369Z,99.90
2019-05-20T09:06:06.123Z,99.90
2019-05-20T09:08:37.894Z,99.90
2019-05-20T09:11:09.567Z,99.90
2019-05-20T09:13:41.354Z,99.90
2019-05-20T09:16:13.331Z,99.90
2019-05-20T09:18:45.101Z,99.90
2019-05-20T09:21:17.707Z,99.90
2019-05-20T09:23:49.527Z,99.90
2019-05-20T09:26:21.426Z,99.90
2019-05-20T09:28:53.169Z,99.90
2019-05-20T09:31:25.078Z,99.90
2019-05-20T09:33:56.920Z,99.90
2019-05-20T09:36:28.692Z,99.90
2019-05-20T09:39:00.599Z,99.90
2019-05-20T09:41:34.102Z,99.90
2019-05-20T09:44:07.050Z,99.90
2019-05-20T09:46:38.835Z,99.90
2019-05-20T09:49:10.568Z,99.90
2019-05-20T09:51:42.621Z,99.90
2019-05-20T09:54:14.528Z,99.90
2019-05-20T09:56:46.462Z,99.90
2019-05-20T09:59:18.253Z,99.90
2019-05-20T10:01:50.465Z,99.90
2019-05-20T10:04:22.538Z,99.90
2019-05-20T10:06:56.681Z,99.90
2019-05-20T10:09:29.430Z,99.90
2019-05-20T10:12:01.696Z,99.90
2019-05-20T10:14:33.295Z,99.90
2019-05-20T10:17:05.137Z,99.90
2019-05-20T10:19:37.907Z,99.90
2019-05-20T10:22:09.978Z,99.90
2019-05-20T10:24:41.720Z,99.90
2019-05-20T10:27:13.435Z,99.90
2019-05-20T10:29:45.252Z,99.90
2019-05-20T10:32:16.996Z,99.90
2019-05-20T10:34:48.713Z,99.90
2019-05-20T10:37:20.374Z,99.90
2019-05-20T10:39:52.116Z,99.90
2019-05-20T10:42:23.817Z,99.90
2019-05-20T10:44:55.719Z,99.90
2019-05-20T10:47:27.588Z,99.90
2019-05-20T10:49:59.539Z,99.90
2019-05-20T10:52:32.454Z,99.90
2019-05-20T10:55:04.570Z,99.90
2019-05-20T10:57:36.362Z,99.90
2019-05-20T11:00:09.122Z,99.90
2019-05-20T11:02:41.191Z,99.90
2019-05-20T11:05:13.483Z,99.90
2019-05-20T11:07:45.635Z,99.90
2019-05-20T11:10:18.014Z,99.90
2019-05-20T11:12:49.707Z,99.90
2019-05-20T11:15:21.747Z,99.90
2019-05-20T11:17:53.570Z,99.90
2019-05-20T11:20:25.252Z,99.90
2019-05-20T11:23:00.898Z,99.90
2019-05-20T11:25:30.552Z,99.90
2019-05-20T11:28:02.424Z,99.90
2019-05-20T11:30:34.196Z,99.90
2019-05-20T11:33:05.995Z,99.90
2019-05-20T11:35:37.722Z,99.90
2019-05-20T11:38:09.392Z,99.90
2019-05-20T11:40:41.116Z,99.90
2019-05-20T11:43:13.032Z,99.90
2019-05-20T11:45:44.872Z,99.90
2019-05-20T11:48:17.676Z,99.90
2019-05-20T11:50:49.543Z,99.90
2019-05-20T11:53:21.322Z,99.90
2019-05-20T11:55:53.156Z,99.90
2019-05-20T11:58:24.922Z,99.90
2019-05-20T12:00:56.573Z,99.90
2019-05-20T12:03:28.315Z,99.90
2019-05-20T12:06:00.240Z,99.90
2019-05-20T12:08:32.071Z,99.90
2019-05-20T12:11:03.853Z,99.90
2019-05-20T12:13:35.526Z,99.90
2019-05-20T12:16:07.234Z,99.90
2019-05-20T12:18:38.911Z,99.90
2019-05-20T12:21:10.705Z,99.90
2019-05-20T12:23:43.438Z,99.90
2019-05-20T12:26:15.119Z,99.90
2019-05-20T12:28:47.210Z,99.90
2019-05-20T12:31:19.062Z,99.90
2019-05-20T12:33:51.069Z,99.90
2019-05-20T12:36:23.000Z,99.90
2019-05-20T12:38:54.776Z,99.90
2019-05-20T12:41:27.056Z,99.90
2019-05-20T12:44:10.823Z,99.90
2019-05-20T12:46:32.335Z,99.90
2019-05-20T12:49:04.272Z,99.90
2019-05-20T12:51:36.394Z,99.90
2019-05-20T12:54:08.163Z,99.90
2019-05-20T12:56:39.867Z,99.90
2019-05-20T12:59:11.531Z,99.90
2019-05-20T13:01:43.493Z,99.90
2019-05-20T13:04:15.534Z,99.90
2019-05-20T13:06:47.540Z,99.90
2019-05-20T13:09:19.279Z,99.90
2019-05-20T13:11:50.986Z,99.90
2019-05-20T13:14:22.700Z,99.90
2019-05-20T13:16:54.451Z,99.90
2019-05-20T13:19:26.244Z,99.90
2019-05-20T13:21:58.085Z,99.90
2019-05-20T13:24:29.800Z,99.90
2019-05-20T13:27:01.657Z,99.90
2019-05-20T13:29:33.432Z,99.90
2019-05-20T13:32:05.242Z,99.90
2019-05-20T13:34:37.158Z,99.90
2019-05-20T13:37:08.918Z,99.90
2019-05-20T13:39:41.313Z,99.90
2019-05-20T13:42:13.112Z,99.90
2019-05-20T13:44:47.064Z,99.90
2019-05-20T13:47:18.578Z,99.90
2019-05-20T13:49:50.526Z,99.90
2019-05-20T13:52:22.300Z,99.90
2019-05-20T13:54:54.125Z,99.90
2019-05-20T13:57:25.930Z,99.90
2019-05-20T13:59:57.730Z,99.90
2019-05-20T14:02:29.408Z,99.90
2019-05-20T14:05:01.359Z,99.80
2019-05-20T14:07:33.381Z,97.90
2019-05-20T14:10:05.884Z,98.80
2019-05-20T14:12:37.890Z,98.80
2019-05-20T14:15:11.483Z,97.30
2019-05-20T14:17:43.715Z,96.70
2019-05-20T14:20:15.988Z,97.50
2019-05-20T14:22:47.712Z,97.70
2019-05-20T14:25:19.411Z,97.20
2019-05-20T14:27:51.465Z,97.60
2019-05-20T14:30:23.341Z,95.60
2019-05-20T14:32:55.113Z,96.20
2019-05-20T14:35:27.357Z,96.00
2019-05-20T14:38:01.463Z,95.20
2019-05-20T14:40:33.462Z,92.80
2019-05-20T14:43:05.251Z,90.80
2019-05-20T14:45:37.168Z,90.20
2019-05-20T14:48:09.017Z,90.50
2019-05-20T14:50:40.806Z,87.10
2019-05-20T14:53:12.820Z,86.10
2019-05-20T14:55:44.789Z,82.00
2019-05-20T14:58:17.587Z,78.80
2019-05-20T15:00:49.674Z,80.10
2019-05-20T15:03:21.602Z,82.10
2019-05-20T15:05:53.337Z,81.80
2019-05-20T15:08:25.118Z,79.30
2019-05-20T15:10:56.810Z,77.80
2019-05-20T15:13:28.473Z,77.80
2019-05-20T15:16:00.236Z,77.20
2019-05-20T15:18:32.950Z,75.40
2019-05-20T15:21:04.747Z,72.10
2019-05-20T15:23:36.613Z,69.70
2019-05-20T15:26:08.443Z,72.00
2019-05-20T15:28:40.381Z,76.50
2019-05-20T15:31:12.170Z,75.70
2019-05-20T15:33:44.171Z,75.50
2019-05-20T15:36:16.336Z,78.70
2019-05-20T15:38:48.157Z,79.30
2019-05-20T15:41:19.955Z,80.30
2019-05-20T15:43:51.822Z,79.20
2019-05-20T15:46:23.619Z,82.70
2019-05-20T15:48:55.425Z,85.80
2019-05-20T15:51:27.488Z,85.80
2019-05-20T15:53:59.317Z,88.50
2019-05-20T15:56:31.202Z,90.30
2019-05-20T15:59:03.275Z,90.50
2019-05-20T16:01:35.042Z,91.00
2019-05-20T16:04:06.965Z,90.50
2019-05-20T16:06:38.652Z,88.90
2019-05-20T16:09:10.881Z,88.50
2019-05-20T16:11:42.609Z,89.40
2019-05-20T16:14:14.396Z,88.40
2019-05-20T16:16:46.216Z,87.10
2019-05-20T16:19:18.043Z,86.20
2019-05-20T16:21:49.957Z,89.30
2019-05-20T16:24:21.819Z,88.60
2019-05-20T16:26:53.570Z,86.60
2019-05-20T16:29:25.342Z,87.60
2019-05-20T16:31:57.307Z,89.10
2019-05-20T16:34:29.255Z,88.70
2019-05-20T16:37:03.342Z,84.00
2019-05-20T16:39:35.251Z,84.90
2019-05-20T16:42:07.245Z,85.50
2019-05-20T16:44:39.944Z,83.30
2019-05-20T16:47:11.688Z,84.90
2019-05-20T16:49:43.360Z,85.10
2019-05-20T16:52:15.135Z,83.70
2019-05-20T16:54:46.902Z,82.20
2019-05-20T16:57:18.556Z,79.70
2019-05-20T16:59:50.242Z,79.70
2019-05-20T17:02:21.871Z,78.90
2019-05-20T17:04:53.624Z,80.00
2019-05-20T17:08:02.784Z,81.90
2019-05-20T17:10:41.699Z,81.80
2019-05-20T17:13:16.554Z,81.50
2019-05-20T17:15:48.351Z,83.10
2019-05-20T17:18:20.746Z,83.60
2019-05-20T17:20:52.749Z,81.00
2019-05-20T17:23:24.764Z,81.90
2019-05-20T17:25:56.765Z,80.80
2019-05-20T17:28:32.323Z,79.10
2019-05-20T17:31:04.007Z,91.60
2019-05-20T17:33:35.727Z,79.40
2019-05-20T17:36:07.555Z,80.60
2019-05-20T17:38:40.285Z,78.70
2019-05-20T17:41:12.100Z,78.50
2019-05-20T17:43:45.331Z,81.40
2019-05-20T17:46:17.562Z,77.50
2019-05-20T17:48:49.393Z,76.10
2019-05-20T17:51:21.374Z,76.80
2019-05-20T17:53:53.149Z,76.20
2019-05-20T17:56:25.088Z,78.50
2019-05-20T17:58:56.748Z,78.30
2019-05-20T18:01:28.641Z,73.20
2019-05-20T18:04:00.408Z,73.70
2019-05-20T18:06:32.482Z,71.20
2019-05-20T18:09:06.447Z,72.80
2019-05-20T18:11:38.470Z,74.30
2019-05-20T18:14:10.246Z,77.00
2019-05-20T18:16:42.090Z,74.90
2019-05-20T18:19:14.318Z,74.30
2019-05-20T18:21:46.081Z,75.40
2019-05-20T18:24:17.841Z,76.50
2019-05-20T18:26:49.572Z,78.50
2019-05-20T18:29:21.228Z,83.70
2019-05-20T18:31:52.998Z,82.00
2019-05-20T18:34:24.881Z,84.90
2019-05-20T18:36:56.589Z,86.90
2019-05-20T18:39:28.391Z,90.00
2019-05-20T18:42:00.229Z,90.00
2019-05-20T18:44:32.496Z,89.10
2019-05-20T18:47:04.268Z,91.00
2019-05-20T18:49:36.115Z,91.50
2019-05-20T18:52:07.968Z,90.70
2019-05-20T18:54:39.767Z,91.80
2019-05-20T18:57:11.684Z,92.80
2019-05-20T18:59:43.493Z,92.40
2019-05-20T19:02:18.048Z,93.80
2019-05-20T19:04:49.879Z,94.70
2019-05-20T19:07:21.629Z,95.00
2019-05-20T19:09:53.485Z,95.00
2019-05-20T19:12:25.360Z,95.00
2019-05-20T19:14:57.237Z,96.20
2019-05-20T19:17:29.133Z,96.30
2019-05-20T19:20:00.913Z,97.00
2019-05-20T19:22:32.869Z,97.00
2019-05-20T19:25:06.647Z,97.50
2019-05-20T19:27:38.245Z,98.30
2019-05-20T19:30:10.750Z,98.20
2019-05-20T19:32:42.749Z,98.80
2019-05-20T19:35:15.852Z,99.40
2019-05-20T19:37:48.593Z,99.90
2019-05-20T19:40:20.557Z,99.90
2019-05-20T19:42:52.432Z,99.90
2019-05-20T19:45:24.350Z,99.90
2019-05-20T19:47:56.489Z,99.90
2019-05-20T19:50:28.442Z,99.90
2019-05-20T19:53:00.375Z,99.90
2019-05-20T19:55:32.328Z,99.90
2019-05-20T19:58:04.250Z,99.90
2019-05-20T20:00:36.171Z,99.90
2019-05-20T20:03:08.116Z,99.90
2019-05-20T20:05:41.361Z,99.90
2019-05-20T20:08:13.411Z,99.90
2019-05-20T20:10:45.346Z,99.90
2019-05-20T20:13:17.324Z,99.90
2019-05-20T20:15:49.126Z,99.90
2019-05-20T20:18:21.325Z,99.90
2019-05-20T20:20:53.067Z,99.90
2019-05-20T20:23:25.217Z,99.90
2019-05-20T20:25:57.075Z,99.90
2019-05-20T20:28:29.837Z,99.90
2019-05-20T20:31:13.598Z,99.90
2019-05-20T20:33:45.746Z,99.90
2019-05-20T20:36:17.638Z,99.90
2019-05-20T20:38:49.513Z,99.90
2019-05-20T20:41:22.130Z,99.90
2019-05-20T20:43:54.180Z,99.90
2019-05-20T20:46:27.595Z,99.90
2019-05-20T20:48:59.869Z,99.90
2019-05-20T20:51:31.783Z,99.90
2019-05-20T20:54:04.618Z,99.90
2019-05-20T20:56:37.124Z,99.90
2019-05-20T20:59:08.910Z,99.90
2019-05-20T21:01:40.762Z,99.90
2019-05-20T21:04:12.839Z,99.90
2019-05-20T21:06:47.513Z,99.90
2019-05-20T21:09:19.446Z,99.90
2019-05-20T21:11:51.210Z,99.90
2019-05-20T21:14:23.082Z,99.90
2019-05-20T21:16:54.784Z,99.90
2019-05-20T21:19:26.513Z,99.90
2019-05-20T21:21:58.296Z,99.90
2019-05-20T21:24:30.865Z,99.90
2019-05-20T21:27:02.743Z,99.90
2019-05-20T21:29:34.557Z,99.90
2019-05-20T21:32:06.344Z,99.90
2019-05-20T21:34:38.314Z,99.90
2019-05-20T21:37:10.026Z,99.90
2019-05-20T21:39:41.740Z,99.90
2019-05-20T21:42:13.550Z,99.90
2019-05-20T21:44:46.356Z,99.90
2019-05-20T21:47:18.089Z,99.90
2019-05-20T21:49:49.956Z,99.90
2019-05-20T21:52:21.657Z,99.90
2019-05-20T21:54:53.375Z,99.90
2019-05-20T21:57:25.169Z,99.90
2019-05-20T21:59:56.877Z,99.90
2019-05-20T22:02:28.663Z,99.90
2019-05-20T22:05:00.392Z,99.90
2019-05-20T22:07:32.308Z,99.90
2019-05-20T22:10:04.321Z,99.90
2019-05-20T22:12:36.250Z,99.90
2019-05-20T22:15:08.357Z,99.90
2019-05-20T22:17:40.298Z,99.90
2019-05-20T22:20:12.351Z,99.90
2019-05-20T22:23:08.895Z,99.90
2019-05-20T22:25:40.632Z,99.90
2019-05-20T22:28:12.936Z,99.90
2019-05-20T22:30:44.724Z,99.90
2019-05-20T22:33:16.446Z,99.90
2019-05-20T22:35:48.110Z,99.90
2019-05-20T22:38:19.854Z,99.90
2019-05-20T22:40:51.569Z,99.90
2019-05-20T22:43:23.227Z,99.90
2019-05-20T22:45:54.954Z,99.90
2019-05-20T22:48:27.600Z,99.90
2019-05-20T22:50:59.318Z,99.90
2019-05-20T22:53:30.976Z,99.90
2019-05-20T22:56:02.614Z,99.90
2019-05-20T22:58:34.287Z,99.90
2019-05-20T23:01:05.922Z,99.90
2019-05-20T23:03:37.627Z,99.90
2019-05-20T23:06:09.292Z,99.90
2019-05-20T23:08:42.362Z,99.90
2019-05-20T23:11:13.970Z,99.90
2019-05-20T23:13:45.641Z,99.90
2019-05-20T23:16:17.357Z,99.90
2019-05-20T23:18:48.979Z,99.90
2019-05-20T23:21:20.630Z,99.90
2019-05-20T23:23:52.266Z,99.90
2019-05-20T23:26:23.907Z,99.90
2019-05-20T23:28:55.537Z,99.90
2019-05-20T23:31:27.267Z,99.90
2019-05-20T23:34:11.702Z,99.90
2019-05-20T23:36:32.274Z,99.90
2019-05-20T23:39:05.888Z,99.90
2019-05-20T23:41:37.593Z,99.90
2019-05-20T23:44:09.355Z,99.90
2019-05-20T23:46:41.001Z,99.90
2019-05-20T23:49:12.633Z,99.90
2019-05-20T23:51:44.245Z,99.90
2019-05-20T23:54:15.901Z,99.90
2019-05-20T23:56:47.691Z,99.90
2019-05-20T23:59:19.412Z,99.90
